createdAt,value
2018-02-16T00:00:20.275Z,25.20
2018-02-16T00:01:23.565Z,24.50
2018-02-16T00:02:26.882Z,24.12
2018-02-16T00:03:29.402Z,24.50
2018-02-16T00:04:32.742Z,24.17
2018-02-16T00:05:35.261Z,23.05
2018-02-16T00:06:38.597Z,24.15
2018-02-16T00:07:41.121Z,24.58
2018-02-16T00:08:43.653Z,23.02
2018-02-16T00:09:46.213Z,23.80
2018-02-16T00:10:48.733Z,24.67
2018-02-16T00:11:51.254Z,24.00
2018-02-16T00:12:53.778Z,24.35
2018-02-16T00:13:56.303Z,26.17
2018-02-16T00:14:59.634Z,25.02
2018-02-16T00:16:02.192Z,24.25
2018-02-16T00:17:04.831Z,26.83
2018-02-16T00:18:08.121Z,25.70
2018-02-16T00:19:10.640Z,26.60
2018-02-16T00:20:13.203Z,28.17
2018-02-16T00:21:15.724Z,27.95
2018-02-16T00:22:18.286Z,26.12
2018-02-16T00:23:20.808Z,26.33
2018-02-16T00:24:23.322Z,26.87
2018-02-16T00:25:25.849Z,25.02
2018-02-16T00:26:28.405Z,27.58
2018-02-16T00:27:30.925Z,25.52
2018-02-16T00:28:33.449Z,26.35
2018-02-16T00:29:36.016Z,25.45
2018-02-16T00:30:38.528Z,27.30
2018-02-16T00:31:41.048Z,25.83
2018-02-16T00:32:43.583Z,26.40
2018-02-16T00:33:46.114Z,24.83
2018-02-16T00:34:48.673Z,26.30
2018-02-16T00:35:51.976Z,26.25
2018-02-16T00:36:54.537Z,25.80
2018-02-16T00:37:57.057Z,24.40
2018-02-16T00:38:59.723Z,26.17
2018-02-16T00:40:02.237Z,26.58
2018-02-16T00:41:04.788Z,25.88
2018-02-16T00:42:08.110Z,24.60
2018-02-16T00:43:10.628Z,23.87
2018-02-16T00:44:13.916Z,26.58
2018-02-16T00:45:17.207Z,24.35
2018-02-16T00:46:20.489Z,25.37
2018-02-16T00:47:23.917Z,25.05
2018-02-16T00:48:26.437Z,27.83
2018-02-16T00:49:29.733Z,24.85
2018-02-16T00:50:32.248Z,23.92
2018-02-16T00:51:34.763Z,24.55
2018-02-16T00:52:38.082Z,26.77
2018-02-16T00:53:40.631Z,24.65
2018-02-16T00:54:43.200Z,23.50
2018-02-16T00:55:45.713Z,24.27
2018-02-16T00:56:48.236Z,23.65
2018-02-16T00:57:50.756Z,24.33
2018-02-16T00:58:53.282Z,23.62
2018-02-16T00:59:56.612Z,23.50
2018-02-16T01:00:59.899Z,24.35
2018-02-16T01:02:03.180Z,23.77
2018-02-16T01:03:06.467Z,24.65
2018-02-16T01:04:09.753Z,25.02
2018-02-16T01:05:13.076Z,24.98
2018-02-16T01:06:15.597Z,23.23
2018-02-16T01:07:18.881Z,24.25
2018-02-16T01:08:22.170Z,25.25
2018-02-16T01:09:25.453Z,24.90
2018-02-16T01:10:28.766Z,25.98
2018-02-16T01:11:31.285Z,25.80
2018-02-16T01:12:33.817Z,26.42
2018-02-16T01:13:36.381Z,25.83
2018-02-16T01:14:38.939Z,26.80
2018-02-16T01:15:41.457Z,24.45
2018-02-16T01:16:44.761Z,26.92
2018-02-16T01:17:48.041Z,27.23
2018-02-16T01:18:51.331Z,26.20
2018-02-16T01:19:53.893Z,26.33
2018-02-16T01:20:57.186Z,27.35
2018-02-16T01:21:59.734Z,26.10
2018-02-16T01:23:03.013Z,23.70
2018-02-16T01:24:06.299Z,24.52
2018-02-16T01:25:09.615Z,25.85
2018-02-16T01:26:12.134Z,25.77
2018-02-16T01:27:14.662Z,25.60
2018-02-16T01:28:17.215Z,25.37
2018-02-16T01:29:19.769Z,26.33
2018-02-16T01:30:22.328Z,25.98
2018-02-16T01:31:25.617Z,26.25
2018-02-16T01:32:28.145Z,24.95
2018-02-16T01:33:30.657Z,25.20
2018-02-16T01:34:33.172Z,24.60
2018-02-16T01:35:35.717Z,23.65
2018-02-16T01:36:38.242Z,23.40
2018-02-16T01:37:41.533Z,24.05
2018-02-16T01:38:44.234Z,26.00
2018-02-16T01:39:46.749Z,23.85
2018-02-16T01:40:50.076Z,26.67
2018-02-16T01:41:52.587Z,25.75
2018-02-16T01:42:55.104Z,27.52
2018-02-16T01:43:57.626Z,27.90
2018-02-16T01:45:00.933Z,27.10
2018-02-16T01:46:04.231Z,28.20
2018-02-16T01:47:06.766Z,26.12
2018-02-16T01:48:10.052Z,25.45
2018-02-16T01:49:13.337Z,24.27
2018-02-16T01:50:16.660Z,24.95
2018-02-16T01:51:19.176Z,24.10
2018-02-16T01:52:22.465Z,24.00
2018-02-16T01:53:25.781Z,26.08
2018-02-16T01:54:28.305Z,24.70
2018-02-16T01:55:30.853Z,25.37
2018-02-16T01:56:33.370Z,25.90
2018-02-16T01:57:35.884Z,25.85
2018-02-16T01:58:38.403Z,26.65
2018-02-16T01:59:40.925Z,25.65
2018-02-16T02:00:43.472Z,24.85
2018-02-16T02:01:45.997Z,27.73
2018-02-16T02:02:48.565Z,25.73
2018-02-16T02:03:51.080Z,26.87
2018-02-16T02:04:53.605Z,24.95
2018-02-16T02:05:56.121Z,26.58
2018-02-16T02:06:58.641Z,24.92
2018-02-16T02:08:01.190Z,23.70
2018-02-16T02:09:03.757Z,25.30
2018-02-16T02:10:06.280Z,25.10
2018-02-16T02:11:08.829Z,25.27
2018-02-16T02:12:11.356Z,23.50
2018-02-16T02:13:13.882Z,26.02
2018-02-16T02:14:16.437Z,24.98
2018-02-16T02:15:18.953Z,25.62
2018-02-16T02:16:21.472Z,27.20
2018-02-16T02:17:24.013Z,27.95
2018-02-16T02:18:26.542Z,29.70
2018-02-16T02:19:29.855Z,26.83
2018-02-16T02:20:32.380Z,25.77
2018-02-16T02:21:35.693Z,26.02
2018-02-16T02:22:38.214Z,26.17
2018-02-16T02:23:40.742Z,27.05
2018-02-16T02:24:43.292Z,26.40
2018-02-16T02:25:45.818Z,27.67
2018-02-16T02:26:48.340Z,25.60
2018-02-16T02:27:50.889Z,27.65
2018-02-16T02:28:53.400Z,26.65
2018-02-16T02:29:55.916Z,28.77
2018-02-16T02:30:58.482Z,28.17
2018-02-16T02:32:01.004Z,25.00
2018-02-16T02:33:03.519Z,24.65
2018-02-16T02:34:06.046Z,24.73
2018-02-16T02:35:08.601Z,25.95
2018-02-16T02:36:11.121Z,26.52
2018-02-16T02:37:13.638Z,25.48
2018-02-16T02:38:16.166Z,26.70
2018-02-16T02:39:18.684Z,27.75
2018-02-16T02:40:22.013Z,26.90
2018-02-16T02:41:24.568Z,28.83
2018-02-16T02:42:27.093Z,30.17
2018-02-16T02:43:29.609Z,31.70
2018-02-16T02:44:32.140Z,29.77
2018-02-16T02:45:35.477Z,28.65
2018-02-16T02:46:37.994Z,30.92
2018-02-16T02:47:41.278Z,27.67
2018-02-16T02:48:44.561Z,26.58
2018-02-16T02:49:48.778Z,28.02
2018-02-16T02:50:51.331Z,26.25
2018-02-16T02:51:54.623Z,27.90
2018-02-16T02:52:57.916Z,27.92
2018-02-16T02:54:00.446Z,30.15
2018-02-16T02:55:02.967Z,28.12
2018-02-16T02:56:05.532Z,30.33
2018-02-16T02:57:08.056Z,30.30
2018-02-16T02:58:11.337Z,28.25
2018-02-16T02:59:13.857Z,29.17
2018-02-16T03:00:16.369Z,27.70
2018-02-16T03:01:19.704Z,26.80
2018-02-16T03:02:22.220Z,28.83
2018-02-16T03:03:25.512Z,28.60
2018-02-16T03:04:28.800Z,27.20
2018-02-16T03:05:32.091Z,26.70
2018-02-16T03:06:34.645Z,27.35
2018-02-16T03:07:37.934Z,26.62
2018-02-16T03:08:41.253Z,27.48
2018-02-16T03:09:43.770Z,27.62
2018-02-16T03:10:47.054Z,28.75
2018-02-16T03:11:50.345Z,26.27
2018-02-16T03:12:53.814Z,28.23
2018-02-16T03:13:56.345Z,26.10
2018-02-16T03:14:58.861Z,28.38
2018-02-16T03:16:02.150Z,28.85
2018-02-16T03:17:05.438Z,26.35
2018-02-16T03:18:08.763Z,31.27
2018-02-16T03:19:11.285Z,32.38
2018-02-16T03:20:14.568Z,30.75
2018-02-16T03:21:17.864Z,30.98
2018-02-16T03:22:20.385Z,30.48
2018-02-16T03:23:22.937Z,29.30
2018-02-16T03:24:25.488Z,30.37
2018-02-16T03:25:28.012Z,29.95
2018-02-16T03:26:31.338Z,29.48
2018-02-16T03:27:33.864Z,28.15
2018-02-16T03:28:37.153Z,30.73
2018-02-16T03:29:40.470Z,29.33
2018-02-16T03:30:42.991Z,29.92
2018-02-16T03:31:46.272Z,29.65
2018-02-16T03:32:48.793Z,30.15
2018-02-16T03:33:51.308Z,29.95
2018-02-16T03:34:54.622Z,31.00
2018-02-16T03:35:57.169Z,33.53
2018-02-16T03:37:00.489Z,32.25
2018-02-16T03:38:03.005Z,33.85
2018-02-16T03:39:06.288Z,31.25
2018-02-16T03:40:08.850Z,32.42
2018-02-16T03:41:11.364Z,32.47
2018-02-16T03:42:13.922Z,33.50
2018-02-16T03:43:16.441Z,31.48
2018-02-16T03:44:18.956Z,31.40
2018-02-16T03:45:21.494Z,32.25
2018-02-16T03:46:24.812Z,32.17
2018-02-16T03:47:27.374Z,33.40
2018-02-16T03:48:29.893Z,30.90
2018-02-16T03:49:32.408Z,31.35
2018-02-16T03:50:34.922Z,32.50
2018-02-16T03:51:37.432Z,31.42
2018-02-16T03:52:39.978Z,28.83
2018-02-16T03:53:43.260Z,29.63
2018-02-16T03:54:46.551Z,29.98
2018-02-16T03:55:49.840Z,28.25
2018-02-16T03:56:52.390Z,30.50
2018-02-16T03:57:55.706Z,28.60
2018-02-16T03:58:58.221Z,29.20
2018-02-16T04:00:00.737Z,27.40
2018-02-16T04:01:03.249Z,29.90
2018-02-16T04:02:05.801Z,30.35
2018-02-16T04:03:08.320Z,28.27
2018-02-16T04:04:10.833Z,28.62
2018-02-16T04:05:13.357Z,29.35
2018-02-16T04:06:15.874Z,30.60
2018-02-16T04:07:18.432Z,28.48
2018-02-16T04:08:20.950Z,30.42
2018-02-16T04:09:23.472Z,31.55
2018-02-16T04:10:26.033Z,29.52
2018-02-16T04:11:28.548Z,28.33
2018-02-16T04:12:31.078Z,27.42
2018-02-16T04:13:33.609Z,29.25
2018-02-16T04:14:36.128Z,30.02
2018-02-16T04:15:39.450Z,28.73
2018-02-16T04:16:41.968Z,28.35
2018-02-16T04:17:44.496Z,27.87
2018-02-16T04:18:47.059Z,28.33
2018-02-16T04:19:49.585Z,27.95
2018-02-16T04:20:52.921Z,27.73
2018-02-16T04:21:55.439Z,29.30
2018-02-16T04:22:57.965Z,27.05
2018-02-16T04:24:00.524Z,26.90
2018-02-16T04:25:03.075Z,27.30
2018-02-16T04:26:05.595Z,26.37
2018-02-16T04:27:08.880Z,29.10
2018-02-16T04:28:12.161Z,27.48
2018-02-16T04:29:15.489Z,27.85
2018-02-16T04:30:18.047Z,27.40
2018-02-16T04:31:20.568Z,27.42
2018-02-16T04:32:23.085Z,27.75
2018-02-16T04:33:25.605Z,26.15
2018-02-16T04:34:28.897Z,26.20
2018-02-16T04:35:32.225Z,26.60
2018-02-16T04:36:34.745Z,27.67
2018-02-16T04:37:38.033Z,26.70
2018-02-16T04:38:41.318Z,28.50
2018-02-16T04:39:44.601Z,28.05
2018-02-16T04:40:47.155Z,27.80
2018-02-16T04:41:50.437Z,29.10
2018-02-16T04:42:53.776Z,27.73
2018-02-16T04:43:56.333Z,27.70
2018-02-16T04:44:58.853Z,27.23
2018-02-16T04:46:01.366Z,27.52
2018-02-16T04:47:03.888Z,27.73
2018-02-16T04:48:07.179Z,28.55
2018-02-16T04:49:10.492Z,26.67
2018-02-16T04:50:13.017Z,27.23
2018-02-16T04:51:15.540Z,27.37
2018-02-16T04:52:18.093Z,26.50
2018-02-16T04:53:20.614Z,28.80
2018-02-16T04:54:23.906Z,28.12
2018-02-16T04:55:27.198Z,28.83
2018-02-16T04:56:30.515Z,28.67
2018-02-16T04:57:33.033Z,29.50
2018-02-16T04:58:35.557Z,27.90
2018-02-16T04:59:38.113Z,30.75
2018-02-16T05:00:40.626Z,28.45
2018-02-16T05:01:43.196Z,29.60
2018-02-16T05:02:45.713Z,28.60
2018-02-16T05:03:48.237Z,28.25
2018-02-16T05:04:51.525Z,29.63
2018-02-16T05:05:54.818Z,28.02
2018-02-16T05:06:58.363Z,28.98
2018-02-16T05:08:00.881Z,28.95
2018-02-16T05:09:03.396Z,29.40
2018-02-16T05:10:05.916Z,31.37
2018-02-16T05:11:08.435Z,28.38
2018-02-16T05:12:10.980Z,29.52
2018-02-16T05:13:13.500Z,31.33
2018-02-16T05:14:16.048Z,29.42
2018-02-16T05:15:19.413Z,28.95
2018-02-16T05:16:21.931Z,28.05
2018-02-16T05:17:24.498Z,28.40
2018-02-16T05:18:27.021Z,27.80
2018-02-16T05:19:29.585Z,25.90
2018-02-16T05:20:32.104Z,28.52
2018-02-16T05:21:34.620Z,29.08
2018-02-16T05:22:37.136Z,27.40
2018-02-16T05:23:39.653Z,29.55
2018-02-16T05:24:42.213Z,27.58
2018-02-16T05:25:44.733Z,29.85
2018-02-16T05:26:47.253Z,27.42
2018-02-16T05:27:49.768Z,29.52
2018-02-16T05:28:52.284Z,28.15
2018-02-16T05:29:54.835Z,29.17
2018-02-16T05:30:57.403Z,29.10
2018-02-16T05:31:59.925Z,29.87
2018-02-16T05:33:02.476Z,31.42
2018-02-16T05:34:05.003Z,31.20
2018-02-16T05:35:07.524Z,28.77
2018-02-16T05:36:10.045Z,29.90
2018-02-16T05:37:12.568Z,30.67
2018-02-16T05:38:15.140Z,30.08
2018-02-16T05:39:17.657Z,31.00
2018-02-16T05:40:20.940Z,30.75
2018-02-16T05:41:24.234Z,30.45
2018-02-16T05:42:27.512Z,29.63
2018-02-16T05:43:30.824Z,31.58
2018-02-16T05:44:33.340Z,29.05
2018-02-16T05:45:35.865Z,29.90
2018-02-16T05:46:38.381Z,28.60
2018-02-16T05:47:40.933Z,29.70
2018-02-16T05:48:43.493Z,28.48
2018-02-16T05:49:46.014Z,29.65
2018-02-16T05:50:48.539Z,28.65
2018-02-16T05:51:51.063Z,29.80
2018-02-16T05:52:53.593Z,29.73
2018-02-16T05:53:57.045Z,27.55
2018-02-16T05:54:59.562Z,27.92
2018-02-16T05:56:02.128Z,28.33
2018-02-16T05:57:04.666Z,27.65
2018-02-16T05:58:07.198Z,26.65
2018-02-16T05:59:09.717Z,27.83
2018-02-16T06:00:13.000Z,25.80
2018-02-16T06:01:16.320Z,25.10
2018-02-16T06:02:18.842Z,26.65
2018-02-16T06:03:22.134Z,28.58
2018-02-16T06:04:24.661Z,27.48
2018-02-16T06:05:27.184Z,25.65
2018-02-16T06:06:29.752Z,27.30
2018-02-16T06:07:32.274Z,25.52
2018-02-16T06:08:34.802Z,28.67
2018-02-16T06:09:37.316Z,26.70
2018-02-16T06:10:40.616Z,27.67
2018-02-16T06:11:43.173Z,27.90
2018-02-16T06:12:46.461Z,28.20
2018-02-16T06:13:49.776Z,27.67
2018-02-16T06:14:52.316Z,26.50
2018-02-16T06:15:54.841Z,28.05
2018-02-16T06:16:57.381Z,27.33
2018-02-16T06:17:59.986Z,28.90
2018-02-16T06:19:02.645Z,28.67
2018-02-16T06:20:05.169Z,27.58
2018-02-16T06:21:07.687Z,26.35
2018-02-16T06:22:10.252Z,33.15
2018-02-16T06:23:12.777Z,28.10
2018-02-16T06:24:15.304Z,27.48
2018-02-16T06:25:18.600Z,28.38
2018-02-16T06:26:21.125Z,27.13
2018-02-16T06:27:23.712Z,26.30
2018-02-16T06:28:26.995Z,27.87
2018-02-16T06:29:29.518Z,28.35
2018-02-16T06:30:32.042Z,26.37
2018-02-16T06:31:35.329Z,25.95
2018-02-16T06:32:38.650Z,26.33
2018-02-16T06:33:41.173Z,26.60
2018-02-16T06:34:44.488Z,26.02
2018-02-16T06:35:47.008Z,26.42
2018-02-16T06:36:49.530Z,28.15
2018-02-16T06:37:52.053Z,27.42
2018-02-16T06:38:55.337Z,29.08
2018-02-16T06:39:58.656Z,26.85
2018-02-16T06:41:01.198Z,27.02
2018-02-16T06:42:03.750Z,29.27
2018-02-16T06:43:07.029Z,27.20
2018-02-16T06:44:10.324Z,25.35
2018-02-16T06:45:13.641Z,28.73
2018-02-16T06:46:16.198Z,27.85
2018-02-16T06:47:18.716Z,27.85
2018-02-16T06:48:21.241Z,26.23
2018-02-16T06:49:23.760Z,27.60
2018-02-16T06:50:27.088Z,27.30
2018-02-16T06:51:29.608Z,26.30
2018-02-16T06:52:32.141Z,26.30
2018-02-16T06:53:34.659Z,26.70
2018-02-16T06:55:47.612Z,25.50
2018-02-16T06:56:50.132Z,24.95
2018-02-16T06:57:53.412Z,27.00
2018-02-16T06:58:56.697Z,26.48
2018-02-16T06:59:59.985Z,26.65
2018-02-16T07:01:02.554Z,26.67
2018-02-16T07:02:05.883Z,25.23
2018-02-16T07:03:08.402Z,26.92
2018-02-16T07:04:11.684Z,26.40
2018-02-16T07:05:14.999Z,25.62
2018-02-16T07:06:17.518Z,26.65
2018-02-16T07:07:20.141Z,26.45
2018-02-16T07:08:22.702Z,29.65
2018-02-16T07:09:25.257Z,25.08
2018-02-16T07:10:27.792Z,24.70
2018-02-16T07:11:30.306Z,25.27
2018-02-16T07:12:32.825Z,25.15
2018-02-16T07:13:36.153Z,23.67
2018-02-16T07:14:38.720Z,22.30
2018-02-16T07:15:41.257Z,25.30
2018-02-16T07:16:44.541Z,24.37
2018-02-16T07:17:47.826Z,24.55
2018-02-16T07:18:51.106Z,24.10
2018-02-16T07:19:53.676Z,24.17
2018-02-16T07:20:56.960Z,25.25
2018-02-16T07:22:00.245Z,24.33
2018-02-16T07:23:03.588Z,25.27
2018-02-16T07:24:06.111Z,25.88
2018-02-16T07:25:08.667Z,25.55
2018-02-16T07:26:11.189Z,26.10
2018-02-16T07:27:13.709Z,25.55
2018-02-16T07:28:16.233Z,24.05
2018-02-16T07:29:18.812Z,23.80
2018-02-16T07:30:22.107Z,21.73
2018-02-16T07:31:25.402Z,24.92
2018-02-16T07:32:27.922Z,25.37
2018-02-16T07:33:30.438Z,23.58
2018-02-16T07:34:32.993Z,22.70
2018-02-16T07:35:35.522Z,23.08
2018-02-16T07:36:38.085Z,23.33
2018-02-16T07:37:40.600Z,22.30
2018-02-16T07:38:43.117Z,22.48
2018-02-16T07:39:45.632Z,22.85
2018-02-16T07:40:48.157Z,20.40
2018-02-16T07:41:50.804Z,18.73
2018-02-16T07:42:53.326Z,20.70
2018-02-16T07:43:55.844Z,18.33
2018-02-16T07:44:58.374Z,18.15
2018-02-16T07:46:00.895Z,19.15
2018-02-16T07:47:04.223Z,18.55
2018-02-16T07:48:06.744Z,20.00
2018-02-16T07:49:09.309Z,18.60
2018-02-16T07:50:11.834Z,18.15
2018-02-16T07:51:14.352Z,18.65
2018-02-16T07:52:17.637Z,17.50
2018-02-16T07:53:20.925Z,18.62
2018-02-16T07:54:24.241Z,17.25
2018-02-16T07:55:26.765Z,19.00
2018-02-16T07:56:29.313Z,16.55
2018-02-16T07:57:31.869Z,16.67
2018-02-16T07:58:34.381Z,17.02
2018-02-16T07:59:36.905Z,17.98
2018-02-16T08:00:39.460Z,17.83
2018-02-16T08:01:41.974Z,16.37
2018-02-16T08:02:45.258Z,16.50
2018-02-16T08:03:48.545Z,17.20
2018-02-16T08:04:51.833Z,17.80
2018-02-16T08:05:54.394Z,17.55
2018-02-16T08:06:57.676Z,16.08
2018-02-16T08:08:00.957Z,17.80
2018-02-16T08:09:04.277Z,17.00
2018-02-16T08:10:06.831Z,16.35
2018-02-16T08:11:09.418Z,17.00
2018-02-16T08:12:11.936Z,17.80
2018-02-16T08:13:15.258Z,16.15
2018-02-16T08:14:17.815Z,17.17
2018-02-16T08:15:20.337Z,17.17
2018-02-16T08:16:22.864Z,16.45
2018-02-16T08:17:25.387Z,16.40
2018-02-16T08:18:28.669Z,17.33
2018-02-16T08:19:31.993Z,17.65
2018-02-16T08:20:34.506Z,16.45
2018-02-16T08:21:37.033Z,15.77
2018-02-16T08:22:39.551Z,15.85
2018-02-16T08:23:42.842Z,15.88
2018-02-16T08:24:46.169Z,15.90
2018-02-16T08:25:48.690Z,15.82
2018-02-16T08:26:51.987Z,17.08
2018-02-16T08:27:54.512Z,15.93
2018-02-16T08:28:57.034Z,16.20
2018-02-16T08:29:59.597Z,16.83
2018-02-16T08:31:02.127Z,16.92
2018-02-16T08:32:05.424Z,17.05
2018-02-16T08:33:08.722Z,15.90
2018-02-16T08:34:11.250Z,16.45
2018-02-16T08:35:13.809Z,17.35
2018-02-16T08:36:16.332Z,16.98
2018-02-16T08:37:18.852Z,18.20
2018-02-16T08:38:21.410Z,16.67
2018-02-16T08:39:23.929Z,16.90
2018-02-16T08:40:26.449Z,16.60
2018-02-16T08:41:29.016Z,16.55
2018-02-16T08:42:31.550Z,17.65
2018-02-16T08:43:34.113Z,16.37
2018-02-16T08:44:36.633Z,17.80
2018-02-16T08:45:39.189Z,16.80
2018-02-16T08:46:41.709Z,17.67
2018-02-16T08:47:44.221Z,16.10
2018-02-16T08:48:47.538Z,17.12
2018-02-16T08:49:50.063Z,17.65
2018-02-16T08:50:52.586Z,16.95
2018-02-16T08:51:55.107Z,16.80
2018-02-16T08:52:58.423Z,17.12
2018-02-16T08:54:00.953Z,17.33
2018-02-16T08:55:03.471Z,15.93
2018-02-16T08:56:05.994Z,15.43
2018-02-16T08:57:09.292Z,17.80
2018-02-16T08:58:11.846Z,17.77
2018-02-16T08:59:15.177Z,16.12
2018-02-16T09:00:17.689Z,17.75
2018-02-16T09:01:20.971Z,16.37
2018-02-16T09:02:24.262Z,17.12
2018-02-16T09:03:27.552Z,17.45
2018-02-16T09:04:30.873Z,16.35
2018-02-16T09:05:33.397Z,16.92
2018-02-16T09:06:36.684Z,17.60
2018-02-16T09:07:39.973Z,16.95
2018-02-16T09:08:43.262Z,16.87
2018-02-16T09:09:45.817Z,16.25
2018-02-16T09:10:49.105Z,18.58
2018-02-16T09:11:52.384Z,21.85
2018-02-16T09:12:55.700Z,19.83
2018-02-16T09:13:58.222Z,19.37
2018-02-16T09:15:01.564Z,20.77
2018-02-16T09:16:04.125Z,18.10
2018-02-16T09:17:06.635Z,18.17
2018-02-16T09:18:09.158Z,18.00
2018-02-16T09:19:14.460Z,15.75
2018-02-16T09:20:16.976Z,17.23
2018-02-16T09:21:20.287Z,15.48
2018-02-16T09:22:23.585Z,16.92
2018-02-16T09:23:26.869Z,16.83
2018-02-16T09:24:29.393Z,15.15
2018-02-16T09:25:32.141Z,17.55
2018-02-16T09:26:34.665Z,16.02
2018-02-16T09:27:37.944Z,16.90
2018-02-16T09:28:41.223Z,16.00
2018-02-16T09:29:44.541Z,13.55
2018-02-16T09:30:47.053Z,17.48
2018-02-16T09:31:49.588Z,15.45
2018-02-16T09:32:52.114Z,15.23
2018-02-16T09:33:55.397Z,16.10
2018-02-16T09:34:58.721Z,15.05
2018-02-16T09:36:01.283Z,15.63
2018-02-16T09:37:03.811Z,15.93
2018-02-16T09:38:07.104Z,17.60
2018-02-16T09:39:15.654Z,26.95
2018-02-16T09:40:18.216Z,33.67
2018-02-16T09:41:20.744Z,17.08
2018-02-16T09:42:24.025Z,16.40
2018-02-16T09:43:27.304Z,16.45
2018-02-16T09:44:30.596Z,17.67
2018-02-16T09:45:33.914Z,18.08
2018-02-16T09:46:36.430Z,14.75
2018-02-16T09:47:39.713Z,16.85
2018-02-16T09:48:43.048Z,15.88
2018-02-16T09:49:45.564Z,16.67
2018-02-16T09:50:48.848Z,16.33
2018-02-16T09:51:52.132Z,14.77
2018-02-16T09:52:55.411Z,14.48
2018-02-16T09:53:57.956Z,14.55
2018-02-16T09:55:00.481Z,15.10
2018-02-16T09:56:03.193Z,16.62
2018-02-16T09:57:05.720Z,16.73
2018-02-16T09:58:08.264Z,14.85
2018-02-16T09:59:11.673Z,15.90
2018-02-16T10:00:14.193Z,15.73
2018-02-16T10:01:17.505Z,15.65
2018-02-16T10:02:20.780Z,14.57
2018-02-16T10:03:24.070Z,15.77
2018-02-16T10:04:26.628Z,14.68
2018-02-16T10:05:29.913Z,13.77
2018-02-16T10:06:33.205Z,15.35
2018-02-16T10:07:35.756Z,13.15
2018-02-16T10:08:39.072Z,12.50
2018-02-16T10:09:41.594Z,13.05
2018-02-16T10:10:44.113Z,13.15
2018-02-16T10:11:46.634Z,16.15
2018-02-16T10:12:50.002Z,15.63
2018-02-16T10:13:52.497Z,15.60
2018-02-16T10:14:55.792Z,16.02
2018-02-16T10:15:58.317Z,16.52
2018-02-16T10:17:00.854Z,14.73
2018-02-16T10:18:03.425Z,15.20
2018-02-16T10:19:05.950Z,16.65
2018-02-16T10:20:09.246Z,14.90
2018-02-16T10:21:11.871Z,15.48
2018-02-16T10:22:14.397Z,13.02
2018-02-16T10:23:17.057Z,13.20
2018-02-16T10:24:19.581Z,10.63
2018-02-16T10:25:22.101Z,12.00
2018-02-16T10:26:24.671Z,10.98
2018-02-16T10:27:27.193Z,12.65
2018-02-16T10:28:30.517Z,13.93
2018-02-16T10:29:33.041Z,12.43
2018-02-16T10:30:36.329Z,11.98
2018-02-16T10:31:39.619Z,13.55
2018-02-16T10:32:42.904Z,11.25
2018-02-16T10:33:45.487Z,9.45
2018-02-16T10:34:48.009Z,9.80
2018-02-16T10:35:50.538Z,11.15
2018-02-16T10:36:53.060Z,12.75
2018-02-16T10:37:56.340Z,11.52
2018-02-16T10:38:59.662Z,11.38
2018-02-16T10:40:02.177Z,10.60
2018-02-16T10:41:04.700Z,12.80
2018-02-16T10:42:07.228Z,12.15
2018-02-16T10:43:10.512Z,9.55
2018-02-16T10:44:13.833Z,10.32
2018-02-16T10:45:16.349Z,11.38
2018-02-16T10:46:18.874Z,12.35
2018-02-16T10:47:22.213Z,11.20
2018-02-16T10:48:25.510Z,12.45
2018-02-16T10:49:28.069Z,10.70
2018-02-16T10:50:30.601Z,10.90
2018-02-16T10:51:33.912Z,11.18
2018-02-16T10:52:37.200Z,11.95
2018-02-16T10:53:40.481Z,11.48
2018-02-16T10:54:43.793Z,10.75
2018-02-16T10:55:46.313Z,12.63
2018-02-16T10:56:48.845Z,10.95
2018-02-16T10:57:51.356Z,12.48
2018-02-16T10:58:54.650Z,11.40
2018-02-16T10:59:57.976Z,11.73
2018-02-16T11:01:06.189Z,10.70
2018-02-16T11:02:14.333Z,11.77
2018-02-16T11:03:23.329Z,10.55
2018-02-16T11:04:31.427Z,11.20
2018-02-16T11:05:40.371Z,11.55
2018-02-16T11:06:48.887Z,11.57
2018-02-16T11:07:51.405Z,11.43
2018-02-16T11:08:59.593Z,11.02
2018-02-16T11:10:02.162Z,10.57
2018-02-16T11:11:04.696Z,10.80
2018-02-16T11:12:07.210Z,8.35
2018-02-16T11:13:10.500Z,10.38
2018-02-16T11:14:13.817Z,10.52
2018-02-16T11:15:17.099Z,11.23
2018-02-16T11:16:19.630Z,12.05
2018-02-16T11:17:22.153Z,10.43
2018-02-16T11:18:24.696Z,10.20
2018-02-16T11:19:27.256Z,9.07
2018-02-16T11:20:29.781Z,11.95
2018-02-16T11:21:32.301Z,11.10
2018-02-16T11:22:34.828Z,11.02
2018-02-16T11:23:38.123Z,9.63
2018-02-16T11:24:41.452Z,11.70
2018-02-16T11:25:43.980Z,10.88
2018-02-16T11:26:47.273Z,9.85
2018-02-16T11:27:49.802Z,10.57
2018-02-16T11:28:52.341Z,9.30
2018-02-16T11:29:54.902Z,9.52
2018-02-16T11:30:57.427Z,8.45
2018-02-16T11:32:00.709Z,8.20
2018-02-16T11:33:04.038Z,9.32
2018-02-16T11:34:06.548Z,8.57
2018-02-16T11:35:09.960Z,8.73
2018-02-16T11:36:12.480Z,8.30
2018-02-16T11:37:15.003Z,9.05
2018-02-16T11:38:17.525Z,7.65
2018-02-16T11:39:20.048Z,9.95
2018-02-16T11:40:22.674Z,8.75
2018-02-16T11:41:25.179Z,8.43
2018-02-16T11:42:27.690Z,7.05
2018-02-16T11:43:30.980Z,7.47
2018-02-16T11:44:34.264Z,7.82
2018-02-16T11:45:37.543Z,8.82
2018-02-16T11:46:40.873Z,9.13
2018-02-16T11:47:43.386Z,7.65
2018-02-16T11:48:45.904Z,7.53
2018-02-16T11:49:48.421Z,6.95
2018-02-16T11:50:50.933Z,6.47
2018-02-16T11:51:53.492Z,7.93
2018-02-16T11:52:56.013Z,7.28
2018-02-16T11:53:58.523Z,7.82
2018-02-16T11:55:01.049Z,7.37
2018-02-16T11:56:03.596Z,6.97
2018-02-16T11:57:06.137Z,7.57
2018-02-16T11:58:08.652Z,7.20
2018-02-16T11:59:11.932Z,6.95
2018-02-16T12:00:14.486Z,6.55
2018-02-16T12:01:17.045Z,7.25
2018-02-16T12:02:19.567Z,6.95
2018-02-16T12:03:22.150Z,6.97
2018-02-16T12:04:24.659Z,7.25
2018-02-16T12:05:27.183Z,7.85
2018-02-16T12:06:29.740Z,7.22
2018-02-16T12:07:32.267Z,7.45
2018-02-16T12:08:35.566Z,7.10
2018-02-16T12:09:38.860Z,5.10
2018-02-16T12:10:41.425Z,5.97
2018-02-16T12:11:43.949Z,5.18
2018-02-16T12:12:46.474Z,5.53
2018-02-16T12:13:49.031Z,5.35
2018-02-16T12:14:51.562Z,5.22
2018-02-16T12:15:54.889Z,5.37
2018-02-16T12:16:57.411Z,5.95
2018-02-16T12:17:59.977Z,5.60
2018-02-16T12:19:03.273Z,5.95
2018-02-16T12:20:06.560Z,6.10
2018-02-16T12:21:09.845Z,5.57
2018-02-16T12:22:13.124Z,5.50
2018-02-16T12:23:16.447Z,5.05
2018-02-16T12:24:18.973Z,5.80
2018-02-16T12:25:22.335Z,5.20
2018-02-16T12:26:24.858Z,6.03
2018-02-16T12:27:27.427Z,5.68
2018-02-16T12:28:29.952Z,6.55
2018-02-16T12:29:33.240Z,6.00
2018-02-16T12:30:36.529Z,5.05
2018-02-16T12:31:39.819Z,5.50
2018-02-16T12:32:43.153Z,5.50
2018-02-16T12:33:45.669Z,4.30
2018-02-16T12:34:48.196Z,5.70
2018-02-16T12:35:50.738Z,5.65
2018-02-16T12:36:53.268Z,5.65
2018-02-16T12:37:56.581Z,5.43
2018-02-16T12:38:59.101Z,5.95
2018-02-16T12:40:02.390Z,5.72
2018-02-16T12:41:05.676Z,5.60
2018-02-16T12:42:09.005Z,5.25
2018-02-16T12:43:11.526Z,5.47
2018-02-16T12:44:14.822Z,5.57
2018-02-16T12:45:17.341Z,5.60
2018-02-16T12:46:19.874Z,5.07
2018-02-16T12:47:22.440Z,4.87
2018-02-16T12:48:24.957Z,4.87
2018-02-16T12:49:27.472Z,4.57
2018-02-16T12:50:30.007Z,4.72
2018-02-16T12:51:33.297Z,4.68
2018-02-16T12:52:36.057Z,3.90
2018-02-16T12:53:39.336Z,4.90
2018-02-16T12:54:42.653Z,4.82
2018-02-16T12:55:45.179Z,5.05
2018-02-16T12:56:47.702Z,5.10
2018-02-16T12:57:50.237Z,5.85
2018-02-16T12:58:52.761Z,7.80
2018-02-16T12:59:55.332Z,4.60
2018-02-16T13:00:57.857Z,6.10
2018-02-16T13:02:00.392Z,5.10
2018-02-16T13:03:03.729Z,5.25
2018-02-16T13:04:06.253Z,4.60
2018-02-16T13:05:08.783Z,5.05
2018-02-16T13:06:11.301Z,3.83
2018-02-16T13:07:13.828Z,4.40
2018-02-16T13:08:16.372Z,4.12
2018-02-16T13:09:18.889Z,4.93
2018-02-16T13:10:21.415Z,3.97
2018-02-16T13:11:23.933Z,4.20
2018-02-16T13:12:26.458Z,5.00
2018-02-16T13:13:29.781Z,3.75
2018-02-16T13:14:32.293Z,3.22
2018-02-16T13:15:34.808Z,3.50
2018-02-16T13:16:37.322Z,4.22
2018-02-16T13:17:39.852Z,3.45
2018-02-16T13:18:42.420Z,4.47
2018-02-16T13:19:45.021Z,2.95
2018-02-16T13:20:47.545Z,3.42
2018-02-16T13:21:50.064Z,3.90
2018-02-16T13:22:52.587Z,4.18
2018-02-16T13:23:55.112Z,4.50
2018-02-16T13:24:58.431Z,4.18
2018-02-16T13:26:00.977Z,3.65
2018-02-16T13:27:04.253Z,4.40
2018-02-16T13:28:07.536Z,4.57
2018-02-16T13:29:10.819Z,3.80
2018-02-16T13:30:17.995Z,4.18
2018-02-16T13:31:21.282Z,4.37
2018-02-16T13:32:23.814Z,4.72
2018-02-16T13:33:26.346Z,4.45
2018-02-16T13:34:28.869Z,4.53